sensor_id;sensor_type;location;lat;lon;timestamp;temperature;humidity
22607;DHT22;11470;20.968;105.834;2024-03-02T00:03:30;13.00;99.90
22607;DHT22;11470;20.968;105.834;2024-03-02T00:08:35;13.00;99.90
22607;DHT22;11470;20.968;105.834;2024-03-02T00:13:41;13.10;99.90
22607;DHT22;11470;20.968;105.834;2024-03-02T00:18:46;13.10;99.90
22607;DHT22;11470;20.968;105.834;2024-03-02T00:23:52;13.10;99.90
22607;DHT22;11470;20.968;105.834;2024-03-02T00:28:57;13.00;99.90
22607;DHT22;11470;20.968;105.834;2024-03-02T00:34:06;13.20;99.90
22607;DHT22;11470;20.968;105.834;2024-03-02T00:39:15;13.40;99.90
22607;DHT22;11470;20.968;105.834;2024-03-02T00:44:25;13.40;99.90
22607;DHT22;11470;20.968;105.834;2024-03-02T00:49:30;13.20;99.90
22607;DHT22;11470;20.968;105.834;2024-03-02T00:54:35;13.30;99.90
22607;DHT22;11470;20.968;105.834;2024-03-02T00:59:41;13.20;99.90
22607;DHT22;11470;20.968;105.834;2024-03-02T01:04:45;13.10;99.90
22607;DHT22;11470;20.968;105.834;2024-03-02T01:09:57;13.10;99.90
22607;DHT22;11470;20.968;105.834;2024-03-02T01:15:04;13.20;99.90
22607;DHT22;11470;20.968;105.834;2024-03-02T01:20:20;13.20;99.90
22607;DHT22;11470;20.968;105.834;2024-03-02T01:25:26;13.30;99.90
22607;DHT22;11470;20.968;105.834;2024-03-02T01:30:31;13.30;99.90
22607;DHT22;11470;20.968;105.834;2024-03-02T01:35:37;13.50;99.90
22607;DHT22;11470;20.968;105.834;2024-03-02T01:47:56;13.60;99.90
22607;DHT22;11470;20.968;105.834;2024-03-02T01:53:02;13.70;99.90
22607;DHT22;11470;20.968;105.834;2024-03-02T01:58:12;13.60;99.90
22607;DHT22;11470;20.968;105.834;2024-03-02T02:03:31;13.70;99.90
22607;DHT22;11470;20.968;105.834;2024-03-02T02:08:38;13.60;99.90
22607;DHT22;11470;20.968;105.834;2024-03-02T02:13:43;13.60;99.90
22607;DHT22;11470;20.968;105.834;2024-03-02T02:18:48;13.60;99.90
22607;DHT22;11470;20.968;105.834;2024-03-02T02:23:53;13.70;99.90
22607;DHT22;11470;20.968;105.834;2024-03-02T02:28:59;13.80;99.90
22607;DHT22;11470;20.968;105.834;2024-03-02T02:34:04;14.00;99.90
22607;DHT22;11470;20.968;105.834;2024-03-02T02:39:15;14.20;99.90
22607;DHT22;11470;20.968;105.834;2024-03-02T02:44:21;14.30;99.90
22607;DHT22;11470;20.968;105.834;2024-03-02T02:49:26;14.50;99.90
22607;DHT22;11470;20.968;105.834;2024-03-02T02:54:31;14.60;99.90
22607;DHT22;11470;20.968;105.834;2024-03-02T02:59:37;14.70;99.90
22607;DHT22;11470;20.968;105.834;2024-03-02T03:04:42;14.70;99.90
22607;DHT22;11470;20.968;105.834;2024-03-02T03:09:47;14.80;99.90
22607;DHT22;11470;20.968;105.834;2024-03-02T03:14:52;15.00;99.90
22607;DHT22;11470;20.968;105.834;2024-03-02T03:19:57;15.20;99.90
22607;DHT22;11470;20.968;105.834;2024-03-02T03:25:03;15.30;99.90
22607;DHT22;11470;20.968;105.834;2024-03-02T03:30:08;15.40;99.90
22607;DHT22;11470;20.968;105.834;2024-03-02T03:35:14;15.60;99.90
22607;DHT22;11470;20.968;105.834;2024-03-02T03:40:20;15.60;99.90
22607;DHT22;11470;20.968;105.834;2024-03-02T03:45:25;15.40;99.90
22607;DHT22;11470;20.968;105.834;2024-03-02T03:50:30;15.30;99.90
22607;DHT22;11470;20.968;105.834;2024-03-02T03:55:36;15.30;99.90
22607;DHT22;11470;20.968;105.834;2024-03-02T04:00:41;15.20;99.90
22607;DHT22;11470;20.968;105.834;2024-03-02T04:05:46;15.60;99.90
22607;DHT22;11470;20.968;105.834;2024-03-02T04:10:51;15.90;99.90
22607;DHT22;11470;20.968;105.834;2024-03-02T04:15:56;16.20;99.90
22607;DHT22;11470;20.968;105.834;2024-03-02T04:21:01;16.40;99.90
22607;DHT22;11470;20.968;105.834;2024-03-02T04:26:08;16.50;99.90
22607;DHT22;11470;20.968;105.834;2024-03-02T04:31:14;16.80;99.90
22607;DHT22;11470;20.968;105.834;2024-03-02T04:36:20;16.80;99.90
22607;DHT22;11470;20.968;105.834;2024-03-02T04:41:26;17.20;99.90
22607;DHT22;11470;20.968;105.834;2024-03-02T04:46:32;17.70;99.90
22607;DHT22;11470;20.968;105.834;2024-03-02T04:51:37;18.40;99.90
22607;DHT22;11470;20.968;105.834;2024-03-02T04:56:43;18.70;99.90
22607;DHT22;11470;20.968;105.834;2024-03-02T05:01:54;18.70;99.90
22607;DHT22;11470;20.968;105.834;2024-03-02T05:07:02;18.30;99.90
22607;DHT22;11470;20.968;105.834;2024-03-02T05:12:08;18.70;99.90
22607;DHT22;11470;20.968;105.834;2024-03-02T05:17:22;18.90;99.90
22607;DHT22;11470;20.968;105.834;2024-03-02T05:22:27;19.30;99.90
22607;DHT22;11470;20.968;105.834;2024-03-02T05:27:33;19.40;99.90
22607;DHT22;11470;20.968;105.834;2024-03-02T05:32:38;19.40;99.90
22607;DHT22;11470;20.968;105.834;2024-03-02T05:37:44;19.40;99.90
22607;DHT22;11470;20.968;105.834;2024-03-02T05:42:50;19.30;99.90
22607;DHT22;11470;20.968;105.834;2024-03-02T05:47:56;19.50;99.90
22607;DHT22;11470;20.968;105.834;2024-03-02T05:53:02;19.40;99.90
22607;DHT22;11470;20.968;105.834;2024-03-02T05:58:07;19.50;99.90
22607;DHT22;11470;20.968;105.834;2024-03-02T06:03:51;19.60;99.90
22607;DHT22;11470;20.968;105.834;2024-03-02T06:09:01;19.50;99.90
22607;DHT22;11470;20.968;105.834;2024-03-02T06:14:29;19.00;99.90
22607;DHT22;11470;20.968;105.834;2024-03-02T06:19:34;18.90;99.90
22607;DHT22;11470;20.968;105.834;2024-03-02T06:24:40;18.70;99.90
22607;DHT22;11470;20.968;105.834;2024-03-02T06:29:45;19.40;99.90
22607;DHT22;11470;20.968;105.834;2024-03-02T06:34:51;19.40;99.90
22607;DHT22;11470;20.968;105.834;2024-03-02T06:39:56;19.80;99.90
22607;DHT22;11470;20.968;105.834;2024-03-02T06:45:02;20.20;99.90
22607;DHT22;11470;20.968;105.834;2024-03-02T06:50:08;20.00;99.90
22607;DHT22;11470;20.968;105.834;2024-03-02T06:55:14;20.00;99.90
22607;DHT22;11470;20.968;105.834;2024-03-02T07:00:20;20.10;99.90
22607;DHT22;11470;20.968;105.834;2024-03-02T07:05:25;20.20;99.90
22607;DHT22;11470;20.968;105.834;2024-03-02T07:10:31;20.00;99.90
22607;DHT22;11470;20.968;105.834;2024-03-02T07:15:36;19.70;99.90
22607;DHT22;11470;20.968;105.834;2024-03-02T07:20:59;19.90;99.90
22607;DHT22;11470;20.968;105.834;2024-03-02T07:26:05;20.20;99.90
22607;DHT22;11470;20.968;105.834;2024-03-02T07:31:15;20.20;99.90
22607;DHT22;11470;20.968;105.834;2024-03-02T07:36:20;20.40;99.90
22607;DHT22;11470;20.968;105.834;2024-03-02T07:41:26;20.60;99.90
22607;DHT22;11470;20.968;105.834;2024-03-02T07:46:31;20.40;99.90
22607;DHT22;11470;20.968;105.834;2024-03-02T07:51:36;20.30;99.90
22607;DHT22;11470;20.968;105.834;2024-03-02T07:56:42;20.50;99.90
22607;DHT22;11470;20.968;105.834;2024-03-02T08:01:49;20.20;99.90
22607;DHT22;11470;20.968;105.834;2024-03-02T08:07:00;19.80;99.90
22607;DHT22;11470;20.968;105.834;2024-03-02T08:12:06;19.30;99.90
22607;DHT22;11470;20.968;105.834;2024-03-02T08:17:11;19.10;99.90
22607;DHT22;11470;20.968;105.834;2024-03-02T08:22:17;19.10;99.90
22607;DHT22;11470;20.968;105.834;2024-03-02T08:27:23;19.30;99.90
22607;DHT22;11470;20.968;105.834;2024-03-02T08:32:28;19.50;99.90
22607;DHT22;11470;20.968;105.834;2024-03-02T08:37:33;19.70;99.90
22607;DHT22;11470;20.968;105.834;2024-03-02T08:42:39;19.30;99.90
22607;DHT22;11470;20.968;105.834;2024-03-02T08:47:47;19.10;99.90
22607;DHT22;11470;20.968;105.834;2024-03-02T08:52:53;18.80;99.90
22607;DHT22;11470;20.968;105.834;2024-03-02T08:57:59;18.70;99.90
22607;DHT22;11470;20.968;105.834;2024-03-02T09:03:05;18.40;99.90
22607;DHT22;11470;20.968;105.834;2024-03-02T09:08:11;18.20;99.90
22607;DHT22;11470;20.968;105.834;2024-03-02T09:13:16;18.30;99.90
22607;DHT22;11470;20.968;105.834;2024-03-02T09:18:21;18.30;99.90
22607;DHT22;11470;20.968;105.834;2024-03-02T09:23:27;18.30;99.90
22607;DHT22;11470;20.968;105.834;2024-03-02T09:28:32;18.20;99.90
22607;DHT22;11470;20.968;105.834;2024-03-02T09:33:38;18.20;99.90
22607;DHT22;11470;20.968;105.834;2024-03-02T09:38:46;18.10;99.90
22607;DHT22;11470;20.968;105.834;2024-03-02T09:43:52;17.80;99.90
22607;DHT22;11470;20.968;105.834;2024-03-02T09:48:58;17.50;99.90
22607;DHT22;11470;20.968;105.834;2024-03-02T09:54:03;17.40;99.90
22607;DHT22;11470;20.968;105.834;2024-03-02T09:59:24;17.30;99.90
22607;DHT22;11470;20.968;105.834;2024-03-02T10:04:30;17.20;99.90
22607;DHT22;11470;20.968;105.834;2024-03-02T10:09:44;17.10;99.90
22607;DHT22;11470;20.968;105.834;2024-03-02T10:14:49;17.00;99.90
22607;DHT22;11470;20.968;105.834;2024-03-02T10:19:56;16.90;99.90
22607;DHT22;11470;20.968;105.834;2024-03-02T10:25:01;16.70;99.90
22607;DHT22;11470;20.968;105.834;2024-03-02T10:30:07;16.50;99.90
22607;DHT22;11470;20.968;105.834;2024-03-02T10:35:20;16.40;99.90
22607;DHT22;11470;20.968;105.834;2024-03-02T10:40:27;16.30;99.90
22607;DHT22;11470;20.968;105.834;2024-03-02T10:45:32;16.20;99.90
22607;DHT22;11470;20.968;105.834;2024-03-02T10:50:38;16.10;99.90
22607;DHT22;11470;20.968;105.834;2024-03-02T10:55:43;16.10;99.90
22607;DHT22;11470;20.968;105.834;2024-03-02T11:00:50;16.00;99.90
22607;DHT22;11470;20.968;105.834;2024-03-02T11:05:55;16.00;99.90
22607;DHT22;11470;20.968;105.834;2024-03-02T11:11:07;15.90;99.90
22607;DHT22;11470;20.968;105.834;2024-03-02T11:16:34;15.90;99.90
22607;DHT22;11470;20.968;105.834;2024-03-02T11:21:40;15.80;99.90
22607;DHT22;11470;20.968;105.834;2024-03-02T11:26:46;15.80;99.90
22607;DHT22;11470;20.968;105.834;2024-03-02T11:32:01;15.80;99.90
22607;DHT22;11470;20.968;105.834;2024-03-02T11:37:06;15.80;99.90
22607;DHT22;11470;20.968;105.834;2024-03-02T11:42:14;15.80;99.90
22607;DHT22;11470;20.968;105.834;2024-03-02T11:47:20;15.80;99.90
22607;DHT22;11470;20.968;105.834;2024-03-02T11:52:27;15.70;99.90
22607;DHT22;11470;20.968;105.834;2024-03-02T11:57:35;15.70;99.90
22607;DHT22;11470;20.968;105.834;2024-03-02T12:02:41;15.70;99.90
22607;DHT22;11470;20.968;105.834;2024-03-02T12:07:59;15.60;99.90
22607;DHT22;11470;20.968;105.834;2024-03-02T12:13:06;15.60;99.90
22607;DHT22;11470;20.968;105.834;2024-03-02T12:18:12;15.60;99.90
22607;DHT22;11470;20.968;105.834;2024-03-02T12:23:18;15.60;99.90
22607;DHT22;11470;20.968;105.834;2024-03-02T12:28:25;15.60;99.90
22607;DHT22;11470;20.968;105.834;2024-03-02T12:33:32;15.60;99.90
22607;DHT22;11470;20.968;105.834;2024-03-02T12:38:42;15.60;99.90
22607;DHT22;11470;20.968;105.834;2024-03-02T12:43:48;15.60;99.90
22607;DHT22;11470;20.968;105.834;2024-03-02T12:48:55;15.50;99.90
22607;DHT22;11470;20.968;105.834;2024-03-02T12:54:01;15.50;99.90
22607;DHT22;11470;20.968;105.834;2024-03-02T12:59:06;15.40;99.90
22607;DHT22;11470;20.968;105.834;2024-03-02T13:04:12;15.50;99.90
22607;DHT22;11470;20.968;105.834;2024-03-02T13:09:17;15.50;99.90
22607;DHT22;11470;20.968;105.834;2024-03-02T13:14:24;15.50;99.90
22607;DHT22;11470;20.968;105.834;2024-03-02T13:19:31;15.40;99.90
22607;DHT22;11470;20.968;105.834;2024-03-02T13:24:36;15.30;99.90
22607;DHT22;11470;20.968;105.834;2024-03-02T13:29:42;15.30;99.90
22607;DHT22;11470;20.968;105.834;2024-03-02T13:35:01;15.20;99.90
22607;DHT22;11470;20.968;105.834;2024-03-02T13:40:22;15.20;99.90
22607;DHT22;11470;20.968;105.834;2024-03-02T13:45:30;15.20;99.90
22607;DHT22;11470;20.968;105.834;2024-03-02T13:50:36;15.20;99.90
22607;DHT22;11470;20.968;105.834;2024-03-02T13:55:41;15.30;99.90
22607;DHT22;11470;20.968;105.834;2024-03-02T14:00:48;15.20;99.90
22607;DHT22;11470;20.968;105.834;2024-03-02T14:05:54;15.20;99.90
22607;DHT22;11470;20.968;105.834;2024-03-02T14:10:59;15.10;99.90
22607;DHT22;11470;20.968;105.834;2024-03-02T14:16:08;15.10;99.90
22607;DHT22;11470;20.968;105.834;2024-03-02T14:21:16;15.10;99.90
22607;DHT22;11470;20.968;105.834;2024-03-02T14:26:25;15.10;99.90
22607;DHT22;11470;20.968;105.834;2024-03-02T14:31:35;15.10;99.90
22607;DHT22;11470;20.968;105.834;2024-03-02T14:36:41;15.10;99.90
22607;DHT22;11470;20.968;105.834;2024-03-02T14:41:54;15.00;99.90
22607;DHT22;11470;20.968;105.834;2024-03-02T14:47:05;15.00;99.90
22607;DHT22;11470;20.968;105.834;2024-03-02T14:52:13;14.90;99.90
22607;DHT22;11470;20.968;105.834;2024-03-02T14:57:20;14.90;99.90
22607;DHT22;11470;20.968;105.834;2024-03-02T15:02:26;14.90;99.90
22607;DHT22;11470;20.968;105.834;2024-03-02T15:07:47;14.90;99.90
22607;DHT22;11470;20.968;105.834;2024-03-02T15:12:55;14.90;99.90
22607;DHT22;11470;20.968;105.834;2024-03-02T15:18:04;14.90;99.90
22607;DHT22;11470;20.968;105.834;2024-03-02T15:23:10;14.90;99.90
22607;DHT22;11470;20.968;105.834;2024-03-02T15:28:15;14.90;99.90
22607;DHT22;11470;20.968;105.834;2024-03-02T15:33:21;15.00;99.90
22607;DHT22;11470;20.968;105.834;2024-03-02T15:38:36;15.00;99.90
22607;DHT22;11470;20.968;105.834;2024-03-02T15:43:48;15.00;99.90
22607;DHT22;11470;20.968;105.834;2024-03-02T15:48:54;15.00;99.90
22607;DHT22;11470;20.968;105.834;2024-03-02T15:54:01;15.00;99.90
22607;DHT22;11470;20.968;105.834;2024-03-02T15:59:12;14.90;99.90
22607;DHT22;11470;20.968;105.834;2024-03-02T16:04:21;14.90;99.90
22607;DHT22;11470;20.968;105.834;2024-03-02T16:09:26;14.90;99.90
22607;DHT22;11470;20.968;105.834;2024-03-02T16:14:32;14.90;99.90
22607;DHT22;11470;20.968;105.834;2024-03-02T16:19:39;14.90;99.90
22607;DHT22;11470;20.968;105.834;2024-03-02T16:24:49;14.90;99.90
22607;DHT22;11470;20.968;105.834;2024-03-02T16:29:55;14.90;99.90
22607;DHT22;11470;20.968;105.834;2024-03-02T16:35:05;14.90;99.90
22607;DHT22;11470;20.968;105.834;2024-03-02T16:40:13;14.90;99.90
22607;DHT22;11470;20.968;105.834;2024-03-02T16:45:19;14.90;99.90
22607;DHT22;11470;20.968;105.834;2024-03-02T16:50:29;14.90;99.90
22607;DHT22;11470;20.968;105.834;2024-03-02T16:55:37;14.90;99.90
22607;DHT22;11470;20.968;105.834;2024-03-02T17:00:47;14.90;99.90
22607;DHT22;11470;20.968;105.834;2024-03-02T17:05:56;14.90;99.90
22607;DHT22;11470;20.968;105.834;2024-03-02T17:11:02;14.90;99.90
22607;DHT22;11470;20.968;105.834;2024-03-02T17:16:25;14.90;99.90
22607;DHT22;11470;20.968;105.834;2024-03-02T17:21:34;14.80;99.90
22607;DHT22;11470;20.968;105.834;2024-03-02T17:26:41;14.80;99.90
22607;DHT22;11470;20.968;105.834;2024-03-02T17:31:47;14.80;99.90
22607;DHT22;11470;20.968;105.834;2024-03-02T17:36:53;14.80;99.90
22607;DHT22;11470;20.968;105.834;2024-03-02T17:41:59;14.80;99.90
22607;DHT22;11470;20.968;105.834;2024-03-02T17:47:04;14.80;99.90
22607;DHT22;11470;20.968;105.834;2024-03-02T17:52:10;14.80;99.90
22607;DHT22;11470;20.968;105.834;2024-03-02T17:57:16;14.80;99.90
22607;DHT22;11470;20.968;105.834;2024-03-02T18:02:23;14.90;99.90
22607;DHT22;11470;20.968;105.834;2024-03-02T18:07:33;14.80;99.90
22607;DHT22;11470;20.968;105.834;2024-03-02T18:12:44;14.70;99.90
22607;DHT22;11470;20.968;105.834;2024-03-02T18:17:52;14.70;99.90
22607;DHT22;11470;20.968;105.834;2024-03-02T18:22:57;14.70;99.90
22607;DHT22;11470;20.968;105.834;2024-03-02T18:28:04;14.70;99.90
22607;DHT22;11470;20.968;105.834;2024-03-02T18:33:10;14.70;99.90
22607;DHT22;11470;20.968;105.834;2024-03-02T18:38:16;14.60;99.90
22607;DHT22;11470;20.968;105.834;2024-03-02T18:43:21;14.70;99.90
22607;DHT22;11470;20.968;105.834;2024-03-02T18:48:27;14.60;99.90
22607;DHT22;11470;20.968;105.834;2024-03-02T18:53:32;14.60;99.90
22607;DHT22;11470;20.968;105.834;2024-03-02T18:58:38;14.60;99.90
22607;DHT22;11470;20.968;105.834;2024-03-02T19:03:43;14.70;99.90
22607;DHT22;11470;20.968;105.834;2024-03-02T19:08:49;14.70;99.90
22607;DHT22;11470;20.968;105.834;2024-03-02T19:13:54;14.70;99.90
22607;DHT22;11470;20.968;105.834;2024-03-02T19:18:59;14.70;99.90
22607;DHT22;11470;20.968;105.834;2024-03-02T19:24:05;14.70;99.90
22607;DHT22;11470;20.968;105.834;2024-03-02T19:29:13;14.60;99.90
22607;DHT22;11470;20.968;105.834;2024-03-02T19:34:18;14.60;99.90
22607;DHT22;11470;20.968;105.834;2024-03-02T19:39:27;14.70;99.90
22607;DHT22;11470;20.968;105.834;2024-03-02T19:44:32;14.60;99.90
22607;DHT22;11470;20.968;105.834;2024-03-02T19:49:37;14.60;99.90
22607;DHT22;11470;20.968;105.834;2024-03-02T19:54:45;14.60;99.90
22607;DHT22;11470;20.968;105.834;2024-03-02T19:59:51;14.60;99.90
22607;DHT22;11470;20.968;105.834;2024-03-02T20:04:56;14.60;99.90
22607;DHT22;11470;20.968;105.834;2024-03-02T20:10:02;14.60;99.90
22607;DHT22;11470;20.968;105.834;2024-03-02T20:15:11;14.50;99.90
22607;DHT22;11470;20.968;105.834;2024-03-02T20:20:21;14.50;99.90
22607;DHT22;11470;20.968;105.834;2024-03-02T20:25:26;14.50;99.90
22607;DHT22;11470;20.968;105.834;2024-03-02T20:30:31;14.50;99.90
22607;DHT22;11470;20.968;105.834;2024-03-02T20:35:37;14.50;99.90
22607;DHT22;11470;20.968;105.834;2024-03-02T20:40:42;14.40;99.90
22607;DHT22;11470;20.968;105.834;2024-03-02T20:45:49;14.60;99.90
22607;DHT22;11470;20.968;105.834;2024-03-02T20:50:54;14.50;99.90
22607;DHT22;11470;20.968;105.834;2024-03-02T20:55:59;14.40;99.90
22607;DHT22;11470;20.968;105.834;2024-03-02T21:01:05;14.40;99.90
22607;DHT22;11470;20.968;105.834;2024-03-02T21:06:10;14.50;99.90
22607;DHT22;11470;20.968;105.834;2024-03-02T21:11:18;14.50;99.90
22607;DHT22;11470;20.968;105.834;2024-03-02T21:16:26;14.50;99.90
22607;DHT22;11470;20.968;105.834;2024-03-02T21:21:31;14.50;99.90
22607;DHT22;11470;20.968;105.834;2024-03-02T21:26:39;14.60;99.90
22607;DHT22;11470;20.968;105.834;2024-03-02T21:31:49;14.60;99.90
22607;DHT22;11470;20.968;105.834;2024-03-02T21:36:55;14.50;99.90
22607;DHT22;11470;20.968;105.834;2024-03-02T21:42:02;14.50;99.90
22607;DHT22;11470;20.968;105.834;2024-03-02T21:47:07;14.60;99.90
22607;DHT22;11470;20.968;105.834;2024-03-02T21:52:12;14.50;99.90
22607;DHT22;11470;20.968;105.834;2024-03-02T21:57:17;14.40;99.90
22607;DHT22;11470;20.968;105.834;2024-03-02T22:02:25;14.30;99.90
22607;DHT22;11470;20.968;105.834;2024-03-02T22:07:30;14.30;99.90
22607;DHT22;11470;20.968;105.834;2024-03-02T22:12:35;14.30;99.90
22607;DHT22;11470;20.968;105.834;2024-03-02T22:17:40;14.20;99.90
22607;DHT22;11470;20.968;105.834;2024-03-02T22:22:47;14.20;99.90
22607;DHT22;11470;20.968;105.834;2024-03-02T22:27:53;14.20;99.90
22607;DHT22;11470;20.968;105.834;2024-03-02T22:33:01;14.30;99.90
22607;DHT22;11470;20.968;105.834;2024-03-02T22:38:09;14.30;99.90
22607;DHT22;11470;20.968;105.834;2024-03-02T22:43:16;14.30;99.90
22607;DHT22;11470;20.968;105.834;2024-03-02T22:48:22;14.30;99.90
22607;DHT22;11470;20.968;105.834;2024-03-02T22:53:27;14.30;99.90
22607;DHT22;11470;20.968;105.834;2024-03-02T22:58:32;14.40;99.90
22607;DHT22;11470;20.968;105.834;2024-03-02T23:03:37;14.30;99.90
22607;DHT22;11470;20.968;105.834;2024-03-02T23:08:43;14.30;99.90
22607;DHT22;11470;20.968;105.834;2024-03-02T23:19:42;14.40;99.90
22607;DHT22;11470;20.968;105.834;2024-03-02T23:24:48;14.40;99.90
22607;DHT22;11470;20.968;105.834;2024-03-02T23:29:54;14.30;99.90
22607;DHT22;11470;20.968;105.834;2024-03-02T23:34:59;14.30;99.90
22607;DHT22;11470;20.968;105.834;2024-03-02T23:40:05;14.40;99.90
22607;DHT22;11470;20.968;105.834;2024-03-02T23:45:30;14.30;99.90
22607;DHT22;11470;20.968;105.834;2024-03-02T23:50:36;14.30;99.90
22607;DHT22;11470;20.968;105.834;2024-03-02T23:55:41;14.40;99.90
